sensor_id;sensor_type;location;lat;lon;timestamp;temperature;humidity
810;DHT22;387;48.772;9.186;2022-10-17T00:00:36;15.20;94.10
810;DHT22;387;48.772;9.186;2022-10-17T00:03:02;15.10;94.20
810;DHT22;387;48.772;9.186;2022-10-17T00:05:27;15.10;94.20
810;DHT22;387;48.772;9.186;2022-10-17T00:07:53;15.20;94.30
810;DHT22;387;48.772;9.186;2022-10-17T00:10:19;15.10;94.20
810;DHT22;387;48.772;9.186;2022-10-17T00:12:45;15.10;94.20
810;DHT22;387;48.772;9.186;2022-10-17T00:15:14;15.10;94.20
810;DHT22;387;48.772;9.186;2022-10-17T00:17:40;15.10;94.30
810;DHT22;387;48.772;9.186;2022-10-17T00:20:07;15.00;94.30
810;DHT22;387;48.772;9.186;2022-10-17T00:22:32;15.00;94.50
810;DHT22;387;48.772;9.186;2022-10-17T00:24:58;15.00;94.40
810;DHT22;387;48.772;9.186;2022-10-17T00:27:24;15.00;94.40
810;DHT22;387;48.772;9.186;2022-10-17T00:29:50;15.00;94.50
810;DHT22;387;48.772;9.186;2022-10-17T00:32:17;15.00;94.50
810;DHT22;387;48.772;9.186;2022-10-17T00:34:43;15.00;94.60
810;DHT22;387;48.772;9.186;2022-10-17T00:37:08;15.00;94.60
810;DHT22;387;48.772;9.186;2022-10-17T00:39:34;14.90;94.80
810;DHT22;387;48.772;9.186;2022-10-17T00:42:00;14.80;94.80
810;DHT22;387;48.772;9.186;2022-10-17T00:46:58;14.70;95.10
810;DHT22;387;48.772;9.186;2022-10-17T00:49:27;14.70;95.20
810;DHT22;387;48.772;9.186;2022-10-17T00:51:57;14.70;95.20
810;DHT22;387;48.772;9.186;2022-10-17T00:54:32;14.70;95.20
810;DHT22;387;48.772;9.186;2022-10-17T00:56:58;14.70;95.10
810;DHT22;387;48.772;9.186;2022-10-17T00:59:25;14.70;95.20
810;DHT22;387;48.772;9.186;2022-10-17T01:02:01;14.60;95.20
810;DHT22;387;48.772;9.186;2022-10-17T01:04:28;14.70;95.20
810;DHT22;387;48.772;9.186;2022-10-17T01:06:53;14.60;95.20
810;DHT22;387;48.772;9.186;2022-10-17T01:09:19;14.60;95.20
810;DHT22;387;48.772;9.186;2022-10-17T01:12:10;14.60;95.10
810;DHT22;387;48.772;9.186;2022-10-17T01:14:45;14.50;95.30
810;DHT22;387;48.772;9.186;2022-10-17T01:17:33;14.60;95.30
810;DHT22;387;48.772;9.186;2022-10-17T01:22:52;14.50;95.00
810;DHT22;387;48.772;9.186;2022-10-17T01:25:42;14.50;95.00
810;DHT22;387;48.772;9.186;2022-10-17T01:28:52;14.50;95.10
810;DHT22;387;48.772;9.186;2022-10-17T01:31:37;14.40;95.10
810;DHT22;387;48.772;9.186;2022-10-17T01:34:13;14.50;95.30
810;DHT22;387;48.772;9.186;2022-10-17T01:39:27;14.40;95.40
810;DHT22;387;48.772;9.186;2022-10-17T01:42:12;14.40;95.40
810;DHT22;387;48.772;9.186;2022-10-17T01:45:15;14.40;95.40
810;DHT22;387;48.772;9.186;2022-10-17T01:47:33;14.50;95.10
810;DHT22;387;48.772;9.186;2022-10-17T01:50:44;14.40;95.00
810;DHT22;387;48.772;9.186;2022-10-17T01:52:54;14.30;95.00
810;DHT22;387;48.772;9.186;2022-10-17T01:55:47;14.30;95.10
810;DHT22;387;48.772;9.186;2022-10-17T01:58:20;14.30;95.00
810;DHT22;387;48.772;9.186;2022-10-17T02:00:47;14.30;95.00
810;DHT22;387;48.772;9.186;2022-10-17T02:03:17;14.20;95.10
810;DHT22;387;48.772;9.186;2022-10-17T02:05:44;14.30;95.20
810;DHT22;387;48.772;9.186;2022-10-17T02:08:10;14.20;95.30
810;DHT22;387;48.772;9.186;2022-10-17T02:10:46;14.20;95.30
810;DHT22;387;48.772;9.186;2022-10-17T02:21:20;14.30;95.10
810;DHT22;387;48.772;9.186;2022-10-17T02:24:11;14.40;95.10
810;DHT22;387;48.772;9.186;2022-10-17T02:29:30;14.40;94.70
810;DHT22;387;48.772;9.186;2022-10-17T02:32:01;14.40;94.50
810;DHT22;387;48.772;9.186;2022-10-17T02:34:39;14.20;94.50
810;DHT22;387;48.772;9.186;2022-10-17T02:37:09;14.20;94.80
810;DHT22;387;48.772;9.186;2022-10-17T02:39:36;14.10;95.00
810;DHT22;387;48.772;9.186;2022-10-17T02:42:06;14.10;95.20
810;DHT22;387;48.772;9.186;2022-10-17T02:44:34;14.10;95.20
810;DHT22;387;48.772;9.186;2022-10-17T02:47:10;14.10;95.20
810;DHT22;387;48.772;9.186;2022-10-17T02:49:40;14.20;95.10
810;DHT22;387;48.772;9.186;2022-10-17T02:57:35;14.10;95.10
810;DHT22;387;48.772;9.186;2022-10-17T03:00:06;14.10;95.20
810;DHT22;387;48.772;9.186;2022-10-17T03:02:41;14.10;95.20
810;DHT22;387;48.772;9.186;2022-10-17T03:05:08;14.20;95.30
810;DHT22;387;48.772;9.186;2022-10-17T03:07:34;14.10;95.20
810;DHT22;387;48.772;9.186;2022-10-17T03:10:00;14.10;95.10
810;DHT22;387;48.772;9.186;2022-10-17T03:12:25;14.10;95.00
810;DHT22;387;48.772;9.186;2022-10-17T03:14:51;14.10;95.10
810;DHT22;387;48.772;9.186;2022-10-17T03:17:16;14.20;95.10
810;DHT22;387;48.772;9.186;2022-10-17T03:19:42;14.20;95.00
810;DHT22;387;48.772;9.186;2022-10-17T03:22:08;14.20;95.00
810;DHT22;387;48.772;9.186;2022-10-17T03:24:33;14.10;95.00
810;DHT22;387;48.772;9.186;2022-10-17T03:26:59;14.20;95.10
810;DHT22;387;48.772;9.186;2022-10-17T03:29:24;14.20;95.00
810;DHT22;387;48.772;9.186;2022-10-17T03:31:50;14.10;94.80
810;DHT22;387;48.772;9.186;2022-10-17T03:34:15;14.10;94.80
810;DHT22;387;48.772;9.186;2022-10-17T03:36:43;14.10;94.70
810;DHT22;387;48.772;9.186;2022-10-17T03:39:09;14.10;94.60
810;DHT22;387;48.772;9.186;2022-10-17T03:41:34;14.10;94.80
810;DHT22;387;48.772;9.186;2022-10-17T03:44:00;14.10;94.80
810;DHT22;387;48.772;9.186;2022-10-17T03:46:25;14.10;94.90
810;DHT22;387;48.772;9.186;2022-10-17T03:48:51;14.10;94.80
810;DHT22;387;48.772;9.186;2022-10-17T03:51:17;14.00;94.80
810;DHT22;387;48.772;9.186;2022-10-17T03:53:42;14.10;94.60
810;DHT22;387;48.772;9.186;2022-10-17T03:56:21;14.00;94.40
810;DHT22;387;48.772;9.186;2022-10-17T03:58:47;14.00;94.50
810;DHT22;387;48.772;9.186;2022-10-17T04:01:15;14.00;94.50
810;DHT22;387;48.772;9.186;2022-10-17T04:03:41;13.90;94.60
810;DHT22;387;48.772;9.186;2022-10-17T04:06:08;13.90;94.60
810;DHT22;387;48.772;9.186;2022-10-17T04:08:35;14.00;94.50
810;DHT22;387;48.772;9.186;2022-10-17T04:11:02;14.00;94.20
810;DHT22;387;48.772;9.186;2022-10-17T04:13:29;13.90;94.30
810;DHT22;387;48.772;9.186;2022-10-17T04:16:00;13.90;94.30
810;DHT22;387;48.772;9.186;2022-10-17T04:18:25;14.00;94.30
810;DHT22;387;48.772;9.186;2022-10-17T04:20:51;13.90;94.20
810;DHT22;387;48.772;9.186;2022-10-17T04:23:17;13.90;94.10
810;DHT22;387;48.772;9.186;2022-10-17T04:25:42;13.90;94.10
810;DHT22;387;48.772;9.186;2022-10-17T04:28:08;13.80;94.20
810;DHT22;387;48.772;9.186;2022-10-17T04:30:34;13.80;94.30
810;DHT22;387;48.772;9.186;2022-10-17T04:32:59;13.80;94.40
810;DHT22;387;48.772;9.186;2022-10-17T04:35:25;13.80;94.30
810;DHT22;387;48.772;9.186;2022-10-17T04:37:50;13.80;94.20
810;DHT22;387;48.772;9.186;2022-10-17T04:40:16;13.80;94.20
810;DHT22;387;48.772;9.186;2022-10-17T04:42:41;13.80;94.20
810;DHT22;387;48.772;9.186;2022-10-17T04:45:07;13.80;94.30
810;DHT22;387;48.772;9.186;2022-10-17T04:47:33;13.80;94.50
810;DHT22;387;48.772;9.186;2022-10-17T04:49:58;13.90;94.50
810;DHT22;387;48.772;9.186;2022-10-17T04:52:24;13.90;94.50
810;DHT22;387;48.772;9.186;2022-10-17T04:54:50;13.90;94.60
810;DHT22;387;48.772;9.186;2022-10-17T04:57:16;13.90;94.60
810;DHT22;387;48.772;9.186;2022-10-17T04:59:42;13.90;94.70
810;DHT22;387;48.772;9.186;2022-10-17T05:02:08;14.00;94.70
810;DHT22;387;48.772;9.186;2022-10-17T05:04:34;14.00;94.60
810;DHT22;387;48.772;9.186;2022-10-17T05:06:59;14.00;94.50
810;DHT22;387;48.772;9.186;2022-10-17T05:09:26;14.00;94.50
810;DHT22;387;48.772;9.186;2022-10-17T05:11:52;14.00;94.50
810;DHT22;387;48.772;9.186;2022-10-17T05:14:17;14.00;94.40
810;DHT22;387;48.772;9.186;2022-10-17T05:16:43;14.00;94.40
810;DHT22;387;48.772;9.186;2022-10-17T05:19:09;14.00;94.20
810;DHT22;387;48.772;9.186;2022-10-17T05:21:35;14.00;94.20
810;DHT22;387;48.772;9.186;2022-10-17T05:24:07;14.00;94.20
810;DHT22;387;48.772;9.186;2022-10-17T05:26:34;14.10;94.00
810;DHT22;387;48.772;9.186;2022-10-17T05:29:00;14.00;93.90
810;DHT22;387;48.772;9.186;2022-10-17T05:31:28;14.00;94.10
810;DHT22;387;48.772;9.186;2022-10-17T05:33:53;14.00;94.10
810;DHT22;387;48.772;9.186;2022-10-17T05:36:19;14.00;94.20
810;DHT22;387;48.772;9.186;2022-10-17T05:38:50;14.10;94.10
810;DHT22;387;48.772;9.186;2022-10-17T05:41:16;14.10;93.80
810;DHT22;387;48.772;9.186;2022-10-17T05:43:42;14.10;93.60
810;DHT22;387;48.772;9.186;2022-10-17T05:46:08;14.10;93.60
810;DHT22;387;48.772;9.186;2022-10-17T05:48:34;14.00;93.60
810;DHT22;387;48.772;9.186;2022-10-17T05:51:02;14.00;93.70
810;DHT22;387;48.772;9.186;2022-10-17T05:53:33;14.00;93.60
810;DHT22;387;48.772;9.186;2022-10-17T05:56:00;14.00;93.80
810;DHT22;387;48.772;9.186;2022-10-17T05:58:27;14.00;93.80
810;DHT22;387;48.772;9.186;2022-10-17T06:01:00;14.00;94.00
810;DHT22;387;48.772;9.186;2022-10-17T06:03:26;14.10;94.00
810;DHT22;387;48.772;9.186;2022-10-17T06:05:53;14.10;94.10
810;DHT22;387;48.772;9.186;2022-10-17T06:08:18;14.10;94.00
810;DHT22;387;48.772;9.186;2022-10-17T06:10:47;14.10;93.90
810;DHT22;387;48.772;9.186;2022-10-17T06:13:14;14.10;93.80
810;DHT22;387;48.772;9.186;2022-10-17T06:15:40;14.10;93.50
810;DHT22;387;48.772;9.186;2022-10-17T06:18:05;14.10;93.30
810;DHT22;387;48.772;9.186;2022-10-17T06:20:31;14.10;93.30
810;DHT22;387;48.772;9.186;2022-10-17T06:22:56;14.10;93.60
810;DHT22;387;48.772;9.186;2022-10-17T06:25:22;14.00;94.00
810;DHT22;387;48.772;9.186;2022-10-17T06:27:47;14.10;94.10
810;DHT22;387;48.772;9.186;2022-10-17T06:30:13;14.10;94.10
810;DHT22;387;48.772;9.186;2022-10-17T06:32:38;14.20;94.00
810;DHT22;387;48.772;9.186;2022-10-17T06:35:04;14.20;93.80
810;DHT22;387;48.772;9.186;2022-10-17T06:37:31;14.30;93.60
810;DHT22;387;48.772;9.186;2022-10-17T06:39:57;14.20;93.50
810;DHT22;387;48.772;9.186;2022-10-17T06:42:23;14.20;93.60
810;DHT22;387;48.772;9.186;2022-10-17T06:44:49;14.20;93.30
810;DHT22;387;48.772;9.186;2022-10-17T06:47:14;14.30;93.20
810;DHT22;387;48.772;9.186;2022-10-17T06:49:40;14.30;93.10
810;DHT22;387;48.772;9.186;2022-10-17T06:52:05;14.30;93.20
810;DHT22;387;48.772;9.186;2022-10-17T06:54:31;14.30;93.10
810;DHT22;387;48.772;9.186;2022-10-17T06:56:57;14.30;93.20
810;DHT22;387;48.772;9.186;2022-10-17T06:59:22;14.20;93.40
810;DHT22;387;48.772;9.186;2022-10-17T07:01:48;14.30;93.50
810;DHT22;387;48.772;9.186;2022-10-17T07:04:13;14.30;93.50
810;DHT22;387;48.772;9.186;2022-10-17T07:06:39;14.40;93.20
810;DHT22;387;48.772;9.186;2022-10-17T07:09:05;14.50;92.90
810;DHT22;387;48.772;9.186;2022-10-17T07:11:32;14.50;92.80
810;DHT22;387;48.772;9.186;2022-10-17T07:13:58;14.60;92.50
810;DHT22;387;48.772;9.186;2022-10-17T07:16:24;14.60;92.40
810;DHT22;387;48.772;9.186;2022-10-17T07:18:50;14.70;92.20
810;DHT22;387;48.772;9.186;2022-10-17T07:21:17;14.80;92.10
810;DHT22;387;48.772;9.186;2022-10-17T07:23:43;14.90;91.80
810;DHT22;387;48.772;9.186;2022-10-17T07:26:11;15.00;91.50
810;DHT22;387;48.772;9.186;2022-10-17T07:28:39;15.10;91.10
810;DHT22;387;48.772;9.186;2022-10-17T07:31:07;15.20;90.70
810;DHT22;387;48.772;9.186;2022-10-17T07:33:33;15.30;90.60
810;DHT22;387;48.772;9.186;2022-10-17T07:35:59;15.40;90.40
810;DHT22;387;48.772;9.186;2022-10-17T07:38:26;15.40;90.30
810;DHT22;387;48.772;9.186;2022-10-17T07:40:56;15.50;90.60
810;DHT22;387;48.772;9.186;2022-10-17T07:43:23;15.60;90.50
810;DHT22;387;48.772;9.186;2022-10-17T07:45:49;15.70;90.40
810;DHT22;387;48.772;9.186;2022-10-17T07:48:14;15.70;90.30
810;DHT22;387;48.772;9.186;2022-10-17T07:50:40;15.90;90.20
810;DHT22;387;48.772;9.186;2022-10-17T07:53:06;16.00;90.00
810;DHT22;387;48.772;9.186;2022-10-17T07:55:31;16.10;89.70
810;DHT22;387;48.772;9.186;2022-10-17T07:57:57;16.20;89.30
810;DHT22;387;48.772;9.186;2022-10-17T08:00:25;16.20;89.20
810;DHT22;387;48.772;9.186;2022-10-17T08:02:50;16.30;89.20
810;DHT22;387;48.772;9.186;2022-10-17T08:05:16;16.40;89.00
810;DHT22;387;48.772;9.186;2022-10-17T08:07:41;16.50;88.30
810;DHT22;387;48.772;9.186;2022-10-17T08:10:07;16.60;88.00
810;DHT22;387;48.772;9.186;2022-10-17T08:12:33;16.70;87.60
810;DHT22;387;48.772;9.186;2022-10-17T08:15:00;16.70;87.10
810;DHT22;387;48.772;9.186;2022-10-17T08:17:25;16.80;86.90
810;DHT22;387;48.772;9.186;2022-10-17T08:19:51;16.90;86.80
810;DHT22;387;48.772;9.186;2022-10-17T08:22:17;17.00;86.20
810;DHT22;387;48.772;9.186;2022-10-17T08:24:42;17.10;86.00
810;DHT22;387;48.772;9.186;2022-10-17T08:27:09;17.20;85.70
810;DHT22;387;48.772;9.186;2022-10-17T08:29:38;17.30;85.30
810;DHT22;387;48.772;9.186;2022-10-17T08:32:04;17.40;85.30
810;DHT22;387;48.772;9.186;2022-10-17T08:34:31;17.50;84.70
810;DHT22;387;48.772;9.186;2022-10-17T08:36:56;17.50;84.70
810;DHT22;387;48.772;9.186;2022-10-17T08:39:22;17.50;84.30
810;DHT22;387;48.772;9.186;2022-10-17T08:45:08;17.60;83.70
810;DHT22;387;48.772;9.186;2022-10-17T08:47:38;17.90;83.40
810;DHT22;387;48.772;9.186;2022-10-17T08:50:10;17.90;83.00
810;DHT22;387;48.772;9.186;2022-10-17T08:55:03;18.10;83.30
810;DHT22;387;48.772;9.186;2022-10-17T08:57:37;18.10;82.80
810;DHT22;387;48.772;9.186;2022-10-17T09:00:06;18.20;83.10
810;DHT22;387;48.772;9.186;2022-10-17T09:02:49;18.30;83.10
810;DHT22;387;48.772;9.186;2022-10-17T09:05:47;18.50;82.70
810;DHT22;387;48.772;9.186;2022-10-17T09:13:47;18.70;80.80
810;DHT22;387;48.772;9.186;2022-10-17T09:19:04;18.70;80.60
810;DHT22;387;48.772;9.186;2022-10-17T09:24:08;19.00;79.90
810;DHT22;387;48.772;9.186;2022-10-17T09:26:38;19.20;79.50
810;DHT22;387;48.772;9.186;2022-10-17T09:29:14;19.30;78.70
810;DHT22;387;48.772;9.186;2022-10-17T09:31:44;19.30;78.00
810;DHT22;387;48.772;9.186;2022-10-17T09:34:11;19.40;78.40
810;DHT22;387;48.772;9.186;2022-10-17T09:36:38;19.60;78.10
810;DHT22;387;48.772;9.186;2022-10-17T09:41:36;19.80;78.40
810;DHT22;387;48.772;9.186;2022-10-17T09:44:22;20.00;78.00
810;DHT22;387;48.772;9.186;2022-10-17T09:46:54;20.10;77.00
810;DHT22;387;48.772;9.186;2022-10-17T09:49:31;20.10;77.10
810;DHT22;387;48.772;9.186;2022-10-17T09:51:57;20.30;77.10
810;DHT22;387;48.772;9.186;2022-10-17T09:54:50;20.40;76.10
810;DHT22;387;48.772;9.186;2022-10-17T09:57:16;20.60;76.40
810;DHT22;387;48.772;9.186;2022-10-17T09:59:54;20.60;75.70
810;DHT22;387;48.772;9.186;2022-10-17T10:02:23;20.70;75.90
810;DHT22;387;48.772;9.186;2022-10-17T10:04:52;20.80;75.10
810;DHT22;387;48.772;9.186;2022-10-17T10:07:19;21.00;75.10
810;DHT22;387;48.772;9.186;2022-10-17T10:09:46;21.10;71.10
810;DHT22;387;48.772;9.186;2022-10-17T10:12:28;21.40;68.60
810;DHT22;387;48.772;9.186;2022-10-17T10:14:55;21.70;68.00
810;DHT22;387;48.772;9.186;2022-10-17T10:17:27;21.90;67.30
810;DHT22;387;48.772;9.186;2022-10-17T10:19:53;22.20;66.00
810;DHT22;387;48.772;9.186;2022-10-17T10:22:20;22.50;65.40
810;DHT22;387;48.772;9.186;2022-10-17T10:25:15;22.80;65.10
810;DHT22;387;48.772;9.186;2022-10-17T10:27:43;23.20;64.40
810;DHT22;387;48.772;9.186;2022-10-17T10:30:17;23.50;64.40
810;DHT22;387;48.772;9.186;2022-10-17T10:32:46;23.70;63.90
810;DHT22;387;48.772;9.186;2022-10-17T10:37:53;24.20;62.00
810;DHT22;387;48.772;9.186;2022-10-17T10:40:49;24.30;60.90
810;DHT22;387;48.772;9.186;2022-10-17T10:45:53;24.80;59.70
810;DHT22;387;48.772;9.186;2022-10-17T10:50:58;24.90;58.20
810;DHT22;387;48.772;9.186;2022-10-17T10:56:13;25.20;58.10
810;DHT22;387;48.772;9.186;2022-10-17T10:59:07;25.40;58.70
810;DHT22;387;48.772;9.186;2022-10-17T11:04:41;25.70;56.00
810;DHT22;387;48.772;9.186;2022-10-17T11:07:33;25.70;56.00
810;DHT22;387;48.772;9.186;2022-10-17T11:20:28;26.00;54.10
810;DHT22;387;48.772;9.186;2022-10-17T11:23:16;26.00;54.50
810;DHT22;387;48.772;9.186;2022-10-17T11:25:48;26.20;52.90
810;DHT22;387;48.772;9.186;2022-10-17T11:28:17;26.40;52.50
810;DHT22;387;48.772;9.186;2022-10-17T11:30:45;26.50;51.30
810;DHT22;387;48.772;9.186;2022-10-17T11:33:17;26.70;50.20
810;DHT22;387;48.772;9.186;2022-10-17T11:35:46;26.60;50.50
810;DHT22;387;48.772;9.186;2022-10-17T11:38:20;26.80;50.60
810;DHT22;387;48.772;9.186;2022-10-17T11:40:50;27.00;50.20
810;DHT22;387;48.772;9.186;2022-10-17T11:43:21;27.40;49.10
810;DHT22;387;48.772;9.186;2022-10-17T11:45:54;27.70;47.40
810;DHT22;387;48.772;9.186;2022-10-17T11:48:22;28.00;47.40
810;DHT22;387;48.772;9.186;2022-10-17T11:50:59;28.20;44.90
810;DHT22;387;48.772;9.186;2022-10-17T11:53:33;28.10;44.70
810;DHT22;387;48.772;9.186;2022-10-17T11:56:01;27.70;44.70
810;DHT22;387;48.772;9.186;2022-10-17T12:01:01;27.00;46.70
810;DHT22;387;48.772;9.186;2022-10-17T12:09:09;26.90;47.40
810;DHT22;387;48.772;9.186;2022-10-17T12:11:58;26.70;47.90
810;DHT22;387;48.772;9.186;2022-10-17T12:14:43;26.80;47.50
810;DHT22;387;48.772;9.186;2022-10-17T12:19:48;26.90;48.20
810;DHT22;387;48.772;9.186;2022-10-17T12:22:24;26.90;47.80
810;DHT22;387;48.772;9.186;2022-10-17T12:25:26;26.80;48.20
810;DHT22;387;48.772;9.186;2022-10-17T12:30:32;27.20;46.90
810;DHT22;387;48.772;9.186;2022-10-17T12:33:10;27.10;46.90
810;DHT22;387;48.772;9.186;2022-10-17T12:35:43;27.10;47.10
810;DHT22;387;48.772;9.186;2022-10-17T12:38:22;27.30;46.70
810;DHT22;387;48.772;9.186;2022-10-17T12:40:49;27.30;46.90
810;DHT22;387;48.772;9.186;2022-10-17T12:45:48;27.20;47.30
810;DHT22;387;48.772;9.186;2022-10-17T12:56:05;27.50;47.40
810;DHT22;387;48.772;9.186;2022-10-17T12:58:30;27.50;47.30
810;DHT22;387;48.772;9.186;2022-10-17T13:00:57;27.60;47.40
810;DHT22;387;48.772;9.186;2022-10-17T13:03:26;27.70;46.70
810;DHT22;387;48.772;9.186;2022-10-17T13:06:01;27.70;46.70
810;DHT22;387;48.772;9.186;2022-10-17T13:08:39;27.60;47.00
810;DHT22;387;48.772;9.186;2022-10-17T13:11:08;27.60;46.70
810;DHT22;387;48.772;9.186;2022-10-17T13:13:50;27.40;46.50
810;DHT22;387;48.772;9.186;2022-10-17T13:16:31;27.60;46.50
810;DHT22;387;48.772;9.186;2022-10-17T13:18:58;27.80;45.80
810;DHT22;387;48.772;9.186;2022-10-17T13:21:24;27.80;45.80
810;DHT22;387;48.772;9.186;2022-10-17T13:23:50;27.70;46.20
810;DHT22;387;48.772;9.186;2022-10-17T13:26:25;27.20;54.50
810;DHT22;387;48.772;9.186;2022-10-17T13:29:03;26.40;59.60
810;DHT22;387;48.772;9.186;2022-10-17T13:31:35;26.10;60.90
810;DHT22;387;48.772;9.186;2022-10-17T13:34:04;26.20;60.00
810;DHT22;387;48.772;9.186;2022-10-17T13:36:30;25.90;61.20
810;DHT22;387;48.772;9.186;2022-10-17T13:38:59;25.30;60.70
810;DHT22;387;48.772;9.186;2022-10-17T13:41:29;25.20;61.20
810;DHT22;387;48.772;9.186;2022-10-17T13:43:57;25.10;61.60
810;DHT22;387;48.772;9.186;2022-10-17T13:48:51;25.70;59.90
810;DHT22;387;48.772;9.186;2022-10-17T13:51:16;25.90;59.30
810;DHT22;387;48.772;9.186;2022-10-17T13:53:42;25.70;59.90
810;DHT22;387;48.772;9.186;2022-10-17T14:01:12;26.20;58.20
810;DHT22;387;48.772;9.186;2022-10-17T14:03:41;25.70;58.50
810;DHT22;387;48.772;9.186;2022-10-17T14:06:27;25.90;58.40
810;DHT22;387;48.772;9.186;2022-10-17T14:09:14;26.00;57.70
810;DHT22;387;48.772;9.186;2022-10-17T14:11:42;25.20;58.50
810;DHT22;387;48.772;9.186;2022-10-17T14:14:22;24.90;59.50
810;DHT22;387;48.772;9.186;2022-10-17T14:16:48;24.70;59.70
810;DHT22;387;48.772;9.186;2022-10-17T14:19:34;24.60;59.50
810;DHT22;387;48.772;9.186;2022-10-17T14:22:26;24.50;58.80
810;DHT22;387;48.772;9.186;2022-10-17T14:24:52;24.70;58.00
810;DHT22;387;48.772;9.186;2022-10-17T14:27:34;24.80;58.20
810;DHT22;387;48.772;9.186;2022-10-17T14:30:51;24.90;58.40
810;DHT22;387;48.772;9.186;2022-10-17T14:32:54;24.90;58.10
810;DHT22;387;48.772;9.186;2022-10-17T14:35:20;25.10;58.10
810;DHT22;387;48.772;9.186;2022-10-17T14:37:48;25.10;56.80
810;DHT22;387;48.772;9.186;2022-10-17T14:40:21;24.90;57.40
810;DHT22;387;48.772;9.186;2022-10-17T14:42:51;25.00;57.70
810;DHT22;387;48.772;9.186;2022-10-17T14:45:29;24.70;57.20
810;DHT22;387;48.772;9.186;2022-10-17T14:48:10;24.60;57.70
810;DHT22;387;48.772;9.186;2022-10-17T14:50:36;24.50;58.20
810;DHT22;387;48.772;9.186;2022-10-17T14:53:18;24.40;58.50
810;DHT22;387;48.772;9.186;2022-10-17T14:56:03;24.40;58.20
810;DHT22;387;48.772;9.186;2022-10-17T14:58:32;24.40;58.50
810;DHT22;387;48.772;9.186;2022-10-17T15:00:59;24.40;58.10
810;DHT22;387;48.772;9.186;2022-10-17T15:03:25;24.50;58.40
810;DHT22;387;48.772;9.186;2022-10-17T15:05:52;24.80;58.10
810;DHT22;387;48.772;9.186;2022-10-17T15:08:20;25.00;57.60
810;DHT22;387;48.772;9.186;2022-10-17T15:10:47;25.00;58.10
810;DHT22;387;48.772;9.186;2022-10-17T15:13:13;25.00;57.80
810;DHT22;387;48.772;9.186;2022-10-17T15:15:40;24.80;57.70
810;DHT22;387;48.772;9.186;2022-10-17T15:18:10;25.10;57.30
810;DHT22;387;48.772;9.186;2022-10-17T15:20:36;25.40;57.80
810;DHT22;387;48.772;9.186;2022-10-17T15:23:03;25.50;56.50
810;DHT22;387;48.772;9.186;2022-10-17T15:25:30;25.30;56.20
810;DHT22;387;48.772;9.186;2022-10-17T15:27:56;25.00;57.80
810;DHT22;387;48.772;9.186;2022-10-17T15:30:28;25.20;57.60
810;DHT22;387;48.772;9.186;2022-10-17T15:32:54;25.30;56.80
810;DHT22;387;48.772;9.186;2022-10-17T15:35:21;25.40;56.80
810;DHT22;387;48.772;9.186;2022-10-17T15:37:47;25.50;56.40
810;DHT22;387;48.772;9.186;2022-10-17T15:40:20;25.50;56.90
810;DHT22;387;48.772;9.186;2022-10-17T15:42:45;25.40;58.20
810;DHT22;387;48.772;9.186;2022-10-17T15:45:12;25.30;59.20
810;DHT22;387;48.772;9.186;2022-10-17T15:47:40;25.20;60.30
810;DHT22;387;48.772;9.186;2022-10-17T15:50:13;25.10;60.90
810;DHT22;387;48.772;9.186;2022-10-17T15:52:39;24.90;62.20
810;DHT22;387;48.772;9.186;2022-10-17T15:55:06;24.70;62.90
810;DHT22;387;48.772;9.186;2022-10-17T15:57:41;24.50;63.70
810;DHT22;387;48.772;9.186;2022-10-17T16:00:21;24.20;64.80
810;DHT22;387;48.772;9.186;2022-10-17T16:02:48;24.00;65.70
810;DHT22;387;48.772;9.186;2022-10-17T16:07:41;23.50;67.00
810;DHT22;387;48.772;9.186;2022-10-17T16:10:07;23.30;67.60
810;DHT22;387;48.772;9.186;2022-10-17T16:12:34;23.10;68.20
810;DHT22;387;48.772;9.186;2022-10-17T16:15:16;23.00;68.60
810;DHT22;387;48.772;9.186;2022-10-17T16:17:42;22.90;69.20
810;DHT22;387;48.772;9.186;2022-10-17T16:20:09;22.70;69.80
810;DHT22;387;48.772;9.186;2022-10-17T16:22:35;22.60;70.50
810;DHT22;387;48.772;9.186;2022-10-17T16:25:06;22.40;70.80
810;DHT22;387;48.772;9.186;2022-10-17T16:27:36;22.20;71.40
810;DHT22;387;48.772;9.186;2022-10-17T16:30:03;22.00;72.40
810;DHT22;387;48.772;9.186;2022-10-17T16:32:29;21.80;73.30
810;DHT22;387;48.772;9.186;2022-10-17T16:34:54;21.70;73.70
810;DHT22;387;48.772;9.186;2022-10-17T16:37:20;21.50;74.30
810;DHT22;387;48.772;9.186;2022-10-17T16:39:45;21.40;74.80
810;DHT22;387;48.772;9.186;2022-10-17T16:42:17;21.20;75.20
810;DHT22;387;48.772;9.186;2022-10-17T16:44:43;21.10;75.50
810;DHT22;387;48.772;9.186;2022-10-17T16:47:08;21.00;76.10
810;DHT22;387;48.772;9.186;2022-10-17T16:49:34;20.90;76.40
810;DHT22;387;48.772;9.186;2022-10-17T16:51:59;20.80;76.80
810;DHT22;387;48.772;9.186;2022-10-17T16:54:25;20.70;76.80
810;DHT22;387;48.772;9.186;2022-10-17T16:56:50;20.60;77.00
810;DHT22;387;48.772;9.186;2022-10-17T16:59:16;20.60;77.00
810;DHT22;387;48.772;9.186;2022-10-17T17:01:41;20.60;76.70
810;DHT22;387;48.772;9.186;2022-10-17T17:04:07;20.50;76.70
810;DHT22;387;48.772;9.186;2022-10-17T17:06:35;20.50;77.00
810;DHT22;387;48.772;9.186;2022-10-17T17:09:00;20.40;77.30
810;DHT22;387;48.772;9.186;2022-10-17T17:11:27;20.30;77.30
810;DHT22;387;48.772;9.186;2022-10-17T17:13:56;20.20;77.80
810;DHT22;387;48.772;9.186;2022-10-17T17:16:24;20.20;78.10
810;DHT22;387;48.772;9.186;2022-10-17T17:18:58;20.20;78.40
810;DHT22;387;48.772;9.186;2022-10-17T17:21:24;20.10;78.70
810;DHT22;387;48.772;9.186;2022-10-17T17:23:51;20.10;78.70
810;DHT22;387;48.772;9.186;2022-10-17T17:26:20;20.00;78.90
810;DHT22;387;48.772;9.186;2022-10-17T17:28:47;19.90;79.20
810;DHT22;387;48.772;9.186;2022-10-17T17:31:15;19.90;79.50
810;DHT22;387;48.772;9.186;2022-10-17T17:33:42;19.90;79.60
810;DHT22;387;48.772;9.186;2022-10-17T17:36:09;19.80;80.20
810;DHT22;387;48.772;9.186;2022-10-17T17:38:36;19.80;80.20
810;DHT22;387;48.772;9.186;2022-10-17T17:41:02;19.80;80.60
810;DHT22;387;48.772;9.186;2022-10-17T17:43:29;19.70;80.90
810;DHT22;387;48.772;9.186;2022-10-17T17:45:54;19.60;80.90
810;DHT22;387;48.772;9.186;2022-10-17T17:48:20;19.60;81.10
810;DHT22;387;48.772;9.186;2022-10-17T17:50:46;19.50;81.20
810;DHT22;387;48.772;9.186;2022-10-17T17:53:13;19.40;81.40
810;DHT22;387;48.772;9.186;2022-10-17T17:55:39;19.30;81.70
810;DHT22;387;48.772;9.186;2022-10-17T17:58:05;19.20;81.80
810;DHT22;387;48.772;9.186;2022-10-17T18:00:34;19.10;82.20
810;DHT22;387;48.772;9.186;2022-10-17T18:03:00;19.00;82.50
810;DHT22;387;48.772;9.186;2022-10-17T18:05:26;19.00;83.00
810;DHT22;387;48.772;9.186;2022-10-17T18:07:52;19.00;83.10
810;DHT22;387;48.772;9.186;2022-10-17T18:10:17;19.10;83.10
810;DHT22;387;48.772;9.186;2022-10-17T18:12:43;19.00;83.10
810;DHT22;387;48.772;9.186;2022-10-17T18:15:09;19.00;83.40
810;DHT22;387;48.772;9.186;2022-10-17T18:17:34;19.00;83.30
810;DHT22;387;48.772;9.186;2022-10-17T18:20:00;19.00;83.30
810;DHT22;387;48.772;9.186;2022-10-17T18:22:27;19.00;83.60
810;DHT22;387;48.772;9.186;2022-10-17T18:24:52;18.90;83.60
810;DHT22;387;48.772;9.186;2022-10-17T18:27:18;18.90;83.80
810;DHT22;387;48.772;9.186;2022-10-17T18:29:44;18.80;83.80